createdAt,value
2023-05-19T00:01:00.535Z,10.93
2023-05-19T00:03:27.539Z,10.94
2023-05-19T00:05:54.729Z,10.87
2023-05-19T00:08:23.621Z,10.88
2023-05-19T00:10:50.766Z,10.78
2023-05-19T00:13:17.725Z,10.82
2023-05-19T00:15:44.745Z,10.68
2023-05-19T00:18:14.280Z,10.80
2023-05-19T00:20:41.378Z,10.80
2023-05-19T00:23:08.397Z,10.70
2023-05-19T00:25:35.151Z,10.74
2023-05-19T00:28:03.085Z,10.71
2023-05-19T00:30:31.206Z,10.73
2023-05-19T00:32:58.163Z,10.74
2023-05-19T00:35:24.984Z,10.72
2023-05-19T00:37:51.678Z,10.72
2023-05-19T00:40:18.503Z,10.71
2023-05-19T00:42:45.658Z,10.72
2023-05-19T00:45:12.368Z,10.69
2023-05-19T00:47:39.536Z,10.68
2023-05-19T00:50:06.795Z,10.69
2023-05-19T00:52:33.528Z,10.68
2023-05-19T00:55:00.274Z,10.67
2023-05-19T00:57:27.942Z,10.65
2023-05-19T00:59:54.818Z,10.53
2023-05-19T01:02:21.664Z,10.57
2023-05-19T01:04:50.020Z,10.59
2023-05-19T01:07:16.832Z,10.60
2023-05-19T01:09:43.789Z,10.61
2023-05-19T01:12:10.722Z,10.57
2023-05-19T01:14:37.435Z,10.59
2023-05-19T01:17:21.351Z,10.59
2023-05-19T01:19:56.426Z,10.58
2023-05-19T01:22:28.081Z,10.53
2023-05-19T01:25:32.401Z,10.54
2023-05-19T01:28:11.481Z,10.52
2023-05-19T01:30:41.505Z,10.51
2023-05-19T01:33:11.101Z,10.51
2023-05-19T01:35:39.707Z,10.51
2023-05-19T01:38:09.534Z,10.50
2023-05-19T01:40:41.596Z,10.49
2023-05-19T01:43:10.823Z,10.48
2023-05-19T01:45:38.372Z,10.48
2023-05-19T01:48:08.424Z,10.47
2023-05-19T01:50:36.896Z,10.42
2023-05-19T01:53:03.707Z,10.39
2023-05-19T01:55:30.821Z,10.42
2023-05-19T01:58:00.454Z,10.44
2023-05-19T02:00:39.218Z,10.41
2023-05-19T02:03:08.668Z,10.42
2023-05-19T02:05:41.075Z,10.42
2023-05-19T02:08:13.175Z,10.41
2023-05-19T02:10:43.730Z,10.37
2023-05-19T02:13:13.814Z,10.40
2023-05-19T02:15:42.544Z,10.39
2023-05-19T02:18:12.693Z,10.36
2023-05-19T02:20:40.085Z,10.37
2023-05-19T02:23:07.121Z,10.34
2023-05-19T02:25:34.064Z,10.36
2023-05-19T02:28:00.890Z,10.36
2023-05-19T02:30:27.934Z,10.34
2023-05-19T02:32:55.505Z,10.30
2023-05-19T02:35:22.447Z,10.31
2023-05-19T02:37:49.185Z,10.29
2023-05-19T02:40:15.912Z,10.27
2023-05-19T02:42:42.556Z,10.27
2023-05-19T02:45:09.692Z,10.28
2023-05-19T02:47:37.297Z,10.11
2023-05-19T02:50:05.640Z,10.20
2023-05-19T02:52:32.317Z,10.22
2023-05-19T02:54:59.068Z,10.22
2023-05-19T02:57:26.795Z,10.23
2023-05-19T02:59:53.577Z,10.22
2023-05-19T03:02:20.257Z,10.21
2023-05-19T03:04:47.036Z,10.20
2023-05-19T03:07:13.737Z,10.17
2023-05-19T03:09:40.503Z,10.16
2023-05-19T03:12:07.954Z,10.03
2023-05-19T03:14:37.738Z,10.07
2023-05-19T03:17:07.774Z,10.05
2023-05-19T03:19:34.612Z,10.10
2023-05-19T03:22:01.357Z,10.03
2023-05-19T03:24:28.170Z,10.01
2023-05-19T03:26:54.877Z,10.03
2023-05-19T03:29:21.620Z,10.00
2023-05-19T03:31:48.315Z,10.06
2023-05-19T03:34:14.966Z,10.07
2023-05-19T03:36:41.656Z,10.06
2023-05-19T03:39:08.430Z,10.00
2023-05-19T03:41:35.113Z,10.01
2023-05-19T03:44:01.806Z,10.04
2023-05-19T03:46:28.716Z,10.00
2023-05-19T03:48:55.449Z,10.04
2023-05-19T03:51:22.093Z,10.05
2023-05-19T03:53:48.909Z,10.05
2023-05-19T03:56:18.138Z,10.01
2023-05-19T03:58:45.152Z,9.87
2023-05-19T04:01:12.013Z,9.98
2023-05-19T04:03:38.843Z,10.01
2023-05-19T04:06:05.950Z,10.02
2023-05-19T04:08:32.684Z,9.93
2023-05-19T04:10:59.451Z,9.95
2023-05-19T04:13:26.256Z,9.91
2023-05-19T04:15:53.263Z,9.94
2023-05-19T04:18:20.069Z,9.88
2023-05-19T04:20:46.742Z,9.83
2023-05-19T04:23:13.461Z,9.78
2023-05-19T04:25:40.978Z,9.86
2023-05-19T04:28:08.041Z,9.92
2023-05-19T04:30:35.260Z,9.96
2023-05-19T04:33:03.359Z,9.90
2023-05-19T04:35:30.168Z,9.95
2023-05-19T04:37:57.030Z,9.94
2023-05-19T04:40:23.976Z,9.91
2023-05-19T04:42:52.454Z,9.89
2023-05-19T04:45:19.257Z,9.92
2023-05-19T04:47:48.191Z,9.91
2023-05-19T04:50:16.485Z,9.96
2023-05-19T04:52:45.562Z,10.00
2023-05-19T04:55:13.232Z,9.94
2023-05-19T04:57:40.385Z,9.94
2023-05-19T05:00:09.170Z,9.98
2023-05-19T05:02:36.276Z,10.03
2023-05-19T05:05:03.161Z,10.03
2023-05-19T05:07:31.661Z,10.01
2023-05-19T05:09:59.094Z,10.06
2023-05-19T05:12:26.185Z,10.02
2023-05-19T05:14:53.206Z,10.00
2023-05-19T05:17:20.567Z,10.06
2023-05-19T05:19:48.588Z,10.08
2023-05-19T05:22:15.914Z,10.11
2023-05-19T05:24:42.820Z,10.14
2023-05-19T05:27:10.481Z,10.07
2023-05-19T05:29:37.389Z,10.08
2023-05-19T05:32:04.302Z,10.10
2023-05-19T05:34:32.064Z,10.16
2023-05-19T05:36:59.054Z,10.22
2023-05-19T05:39:27.246Z,10.25
2023-05-19T05:41:53.963Z,10.28
2023-05-19T05:44:20.671Z,10.30
2023-05-19T05:46:47.607Z,10.34
2023-05-19T05:49:14.532Z,10.26
2023-05-19T05:51:42.957Z,10.38
2023-05-19T05:54:13.507Z,10.38
2023-05-19T05:56:41.259Z,10.23
2023-05-19T05:59:07.992Z,10.23
2023-05-19T06:01:36.021Z,10.26
2023-05-19T06:04:02.809Z,10.39
2023-05-19T06:06:29.613Z,10.28
2023-05-19T06:08:56.308Z,10.18
2023-05-19T06:11:23.159Z,10.31
2023-05-19T06:13:49.966Z,10.20
2023-05-19T06:16:16.840Z,10.37
2023-05-19T06:18:43.676Z,10.36
2023-05-19T06:21:10.702Z,10.40
2023-05-19T06:23:37.409Z,10.45
2023-05-19T06:26:04.087Z,10.39
2023-05-19T06:28:31.763Z,10.43
2023-05-19T06:30:58.665Z,10.50
2023-05-19T06:33:27.498Z,10.33
2023-05-19T06:35:55.784Z,10.39
2023-05-19T06:38:22.496Z,10.48
2023-05-19T06:40:49.189Z,10.57
2023-05-19T06:43:15.874Z,10.47
2023-05-19T06:45:42.526Z,10.57
2023-05-19T06:48:09.288Z,10.65
2023-05-19T06:50:36.131Z,10.63
2023-05-19T06:53:02.979Z,10.69
2023-05-19T06:55:29.778Z,10.76
2023-05-19T06:57:56.662Z,10.74
2023-05-19T07:00:31.487Z,10.78
2023-05-19T07:02:58.439Z,10.80
2023-05-19T07:05:25.174Z,10.83
2023-05-19T07:07:51.839Z,10.65
2023-05-19T07:10:18.591Z,10.81
2023-05-19T07:12:45.275Z,10.78
2023-05-19T07:15:12.072Z,10.92
2023-05-19T07:17:38.832Z,10.94
2023-05-19T07:20:12.247Z,10.98
2023-05-19T07:22:40.122Z,11.01
2023-05-19T07:25:07.911Z,11.06
2023-05-19T07:27:34.719Z,11.14
2023-05-19T07:30:01.424Z,11.17
2023-05-19T07:32:28.180Z,11.23
2023-05-19T07:34:55.029Z,11.25
2023-05-19T07:37:21.724Z,11.28
2023-05-19T07:39:48.461Z,11.29
2023-05-19T07:42:15.129Z,11.34
2023-05-19T07:44:41.866Z,11.25
2023-05-19T07:47:08.776Z,11.37
2023-05-19T07:49:35.568Z,11.44
2023-05-19T07:52:02.233Z,11.53
2023-05-19T07:54:29.088Z,11.50
2023-05-19T07:56:56.076Z,11.50
2023-05-19T07:59:22.716Z,12.11
2023-05-19T08:01:49.476Z,11.97
2023-05-19T08:04:16.291Z,12.02
2023-05-19T08:06:44.488Z,12.15
2023-05-19T08:09:12.076Z,12.15
2023-05-19T08:11:38.828Z,12.29
2023-05-19T08:14:05.566Z,12.40
2023-05-19T08:16:32.357Z,12.46
2023-05-19T08:19:02.515Z,12.49
2023-05-19T08:21:29.568Z,14.15
2023-05-19T08:23:57.264Z,13.15
2023-05-19T08:26:24.010Z,12.81
2023-05-19T08:28:50.740Z,12.65
2023-05-19T08:31:18.552Z,12.62
2023-05-19T08:33:45.750Z,12.58
2023-05-19T08:36:12.393Z,12.49
2023-05-19T08:38:39.192Z,12.54
2023-05-19T08:41:06.278Z,12.54
2023-05-19T08:43:32.971Z,12.54
2023-05-19T08:46:00.819Z,12.62
2023-05-19T08:48:31.330Z,12.66
2023-05-19T08:51:16.930Z,12.70
2023-05-19T08:53:50.539Z,12.75
2023-05-19T08:56:25.046Z,12.71
2023-05-19T08:58:52.314Z,12.76
2023-05-19T09:01:20.080Z,12.78
2023-05-19T09:03:49.856Z,12.78
2023-05-19T09:06:17.086Z,12.67
2023-05-19T09:08:44.564Z,12.84
2023-05-19T09:11:12.017Z,12.85
2023-05-19T09:13:39.293Z,12.94
2023-05-19T09:16:07.016Z,12.94
2023-05-19T09:18:34.008Z,12.86
2023-05-19T09:21:03.077Z,12.82
2023-05-19T09:23:36.523Z,12.82
2023-05-19T09:26:07.626Z,12.75
2023-05-19T09:28:36.519Z,12.83
2023-05-19T09:31:09.253Z,12.80
2023-05-19T09:33:38.007Z,12.85
2023-05-19T09:36:06.515Z,12.74
2023-05-19T09:38:33.341Z,12.75
2023-05-19T09:41:01.134Z,12.88
2023-05-19T09:43:33.378Z,12.80
2023-05-19T09:46:07.824Z,12.96
2023-05-19T09:48:36.589Z,12.97
2023-05-19T09:51:06.515Z,12.84
2023-05-19T09:53:34.584Z,12.93
2023-05-19T09:56:02.128Z,12.95
2023-05-19T09:58:34.786Z,13.03
2023-05-19T10:01:02.310Z,13.04
2023-05-19T10:03:31.114Z,13.05
2023-05-19T10:05:57.940Z,13.12
2023-05-19T10:08:27.382Z,13.21
2023-05-19T10:10:54.282Z,13.14
2023-05-19T10:13:21.996Z,13.17
2023-05-19T10:15:58.302Z,13.26
2023-05-19T10:18:27.352Z,13.38
2023-05-19T10:20:54.878Z,13.41
2023-05-19T10:23:22.551Z,13.37
2023-05-19T10:25:51.886Z,13.40
2023-05-19T10:28:23.666Z,13.39
2023-05-19T10:30:54.921Z,13.37
2023-05-19T10:33:29.820Z,13.34
2023-05-19T10:36:39.350Z,13.28
2023-05-19T10:39:17.805Z,13.33
2023-05-19T10:41:50.254Z,13.31
2023-05-19T10:44:24.832Z,13.35
2023-05-19T10:46:53.436Z,13.33
2023-05-19T10:49:24.084Z,13.46
2023-05-19T10:51:52.476Z,13.49
2023-05-19T10:54:40.873Z,13.55
2023-05-19T10:57:09.947Z,13.42
2023-05-19T10:59:40.390Z,13.49
2023-05-19T11:02:08.766Z,13.36
2023-05-19T11:04:51.166Z,13.53
2023-05-19T11:07:20.488Z,13.62
2023-05-19T11:09:54.001Z,13.69
2023-05-19T11:12:25.233Z,13.70
2023-05-19T11:14:55.879Z,13.44
2023-05-19T11:17:25.703Z,13.66
2023-05-19T11:19:54.888Z,13.75
2023-05-19T11:22:25.960Z,13.82
2023-05-19T11:24:54.924Z,13.80
2023-05-19T11:27:23.205Z,13.94
2023-05-19T11:29:50.256Z,13.69
2023-05-19T11:32:18.090Z,13.92
2023-05-19T11:34:45.905Z,13.79
2023-05-19T11:37:12.607Z,13.94
2023-05-19T11:39:40.539Z,14.00
2023-05-19T11:42:10.108Z,14.02
2023-05-19T11:44:38.397Z,13.89
2023-05-19T11:47:05.931Z,13.92
2023-05-19T11:49:32.952Z,13.81
2023-05-19T11:52:03.966Z,13.84
2023-05-19T11:54:32.962Z,13.95
2023-05-19T11:57:04.537Z,14.03
2023-05-19T11:59:39.270Z,14.07
2023-05-19T12:02:25.052Z,13.89
2023-05-19T12:04:52.551Z,13.99
2023-05-19T12:07:23.052Z,14.04
2023-05-19T12:09:52.992Z,13.86
2023-05-19T12:12:21.326Z,13.83
2023-05-19T12:14:49.932Z,14.02
2023-05-19T12:17:19.836Z,14.02
2023-05-19T12:19:49.381Z,13.92
2023-05-19T12:22:17.388Z,13.98
2023-05-19T12:24:46.171Z,14.01
2023-05-19T12:27:20.410Z,13.91
2023-05-19T12:29:53.813Z,13.92
2023-05-19T12:32:25.619Z,13.82
2023-05-19T12:34:53.309Z,13.65
2023-05-19T12:37:20.212Z,13.95
2023-05-19T12:39:49.378Z,14.00
2023-05-19T12:42:16.710Z,14.08
2023-05-19T12:44:51.662Z,14.13
2023-05-19T12:47:20.382Z,14.18
2023-05-19T12:49:54.865Z,14.15
2023-05-19T12:52:23.577Z,14.20
2023-05-19T12:54:57.957Z,14.19
2023-05-19T12:57:26.276Z,14.16
2023-05-19T12:59:53.539Z,14.29
2023-05-19T13:02:21.086Z,14.33
2023-05-19T13:04:48.521Z,14.21
2023-05-19T13:07:15.306Z,14.17
2023-05-19T13:09:42.300Z,14.02
2023-05-19T13:12:09.355Z,14.15
2023-05-19T13:14:36.042Z,14.33
2023-05-19T13:17:06.175Z,14.14
2023-05-19T13:19:33.030Z,14.25
2023-05-19T13:21:59.864Z,14.27
2023-05-19T13:24:26.574Z,14.17
2023-05-19T13:29:20.098Z,14.43
2023-05-19T13:31:46.863Z,14.39
2023-05-19T13:34:13.700Z,14.23
2023-05-19T13:36:41.586Z,14.35
2023-05-19T13:39:08.303Z,14.31
2023-05-19T13:41:35.138Z,14.33
2023-05-19T13:44:01.835Z,14.37
2023-05-19T13:46:40.604Z,14.30
2023-05-19T13:49:11.299Z,14.33
2023-05-19T13:51:38.266Z,14.36
2023-05-19T13:54:05.182Z,14.23
2023-05-19T13:56:32.067Z,14.22
2023-05-19T13:58:59.378Z,14.33
2023-05-19T14:01:26.104Z,14.28
2023-05-19T14:03:53.149Z,14.30
2023-05-19T14:06:20.022Z,14.30
2023-05-19T14:08:46.785Z,14.35
2023-05-19T14:11:21.800Z,14.38
2023-05-19T14:13:52.930Z,14.41
2023-05-19T14:16:23.306Z,14.40
2023-05-19T14:18:50.028Z,14.44
2023-05-19T14:21:16.862Z,14.35
2023-05-19T14:23:43.743Z,14.41
2023-05-19T14:26:10.463Z,14.45
2023-05-19T14:28:37.372Z,14.44
2023-05-19T14:31:04.255Z,14.48
2023-05-19T14:33:34.933Z,14.51
2023-05-19T14:36:02.473Z,14.41
2023-05-19T14:38:29.627Z,14.57
2023-05-19T14:40:56.765Z,14.51
2023-05-19T14:43:23.488Z,14.51
2023-05-19T14:45:50.434Z,14.57
2023-05-19T14:48:18.132Z,14.53
2023-05-19T14:50:46.356Z,14.49
2023-05-19T14:53:13.039Z,14.11
2023-05-19T14:55:40.046Z,14.49
2023-05-19T14:58:15.967Z,14.62
2023-05-19T15:00:48.084Z,14.80
2023-05-19T15:03:14.878Z,14.80
2023-05-19T15:05:41.682Z,14.77
2023-05-19T15:08:08.397Z,14.78
2023-05-19T15:10:35.201Z,14.71
2023-05-19T15:13:01.945Z,14.48
2023-05-19T15:15:28.650Z,14.43
2023-05-19T15:17:55.566Z,14.58
2023-05-19T15:20:22.293Z,14.71
2023-05-19T15:22:49.171Z,14.08
2023-05-19T15:25:16.306Z,14.50
2023-05-19T15:27:42.965Z,14.52
2023-05-19T15:30:09.923Z,14.73
2023-05-19T15:32:36.683Z,14.34
2023-05-19T15:35:03.393Z,14.50
2023-05-19T15:37:30.158Z,14.23
2023-05-19T15:39:56.929Z,14.05
2023-05-19T15:42:23.579Z,14.21
2023-05-19T15:44:50.360Z,14.42
2023-05-19T15:47:17.237Z,14.33
2023-05-19T15:49:43.996Z,14.49
2023-05-19T15:52:10.751Z,14.17
2023-05-19T15:54:37.439Z,13.97
2023-05-19T15:57:04.132Z,14.27
2023-05-19T15:59:30.892Z,14.36
2023-05-19T16:01:57.831Z,14.38
2023-05-19T16:04:24.599Z,14.07
2023-05-19T16:06:51.242Z,14.25
2023-05-19T16:09:18.003Z,14.24
2023-05-19T16:11:44.706Z,14.35
2023-05-19T16:14:11.420Z,14.47
2023-05-19T16:16:38.113Z,14.54
2023-05-19T16:19:04.891Z,14.55
2023-05-19T16:21:32.312Z,14.51
2023-05-19T16:23:58.998Z,14.57
2023-05-19T16:26:26.503Z,14.27
2023-05-19T16:28:53.204Z,14.30
2023-05-19T16:31:20.277Z,14.35
2023-05-19T16:33:47.029Z,14.37
2023-05-19T16:36:13.660Z,14.37
2023-05-19T16:38:40.463Z,14.27
2023-05-19T16:41:11.023Z,14.14
2023-05-19T16:43:37.801Z,14.37
2023-05-19T16:46:05.505Z,14.26
2023-05-19T16:48:32.269Z,13.98
2023-05-19T16:50:59.580Z,14.12
2023-05-19T16:53:26.295Z,14.44
2023-05-19T16:55:53.018Z,14.24
2023-05-19T16:58:19.695Z,14.27
2023-05-19T17:00:47.274Z,14.38
2023-05-19T17:03:14.090Z,14.33
2023-05-19T17:05:42.087Z,14.42
2023-05-19T17:08:08.754Z,14.55
2023-05-19T17:10:36.082Z,14.64
2023-05-19T17:13:02.923Z,14.68
2023-05-19T17:15:30.339Z,14.67
2023-05-19T17:17:57.129Z,14.71
2023-05-19T17:20:23.869Z,14.73
2023-05-19T17:22:50.555Z,14.71
2023-05-19T17:25:17.312Z,14.63
2023-05-19T17:27:44.058Z,14.65
2023-05-19T17:30:11.288Z,14.66
2023-05-19T17:32:39.620Z,14.67
2023-05-19T17:35:07.282Z,14.61
2023-05-19T17:37:34.010Z,14.39
2023-05-19T17:40:01.127Z,14.51
2023-05-19T17:42:29.207Z,14.57
2023-05-19T17:44:55.893Z,14.59
2023-05-19T17:47:22.661Z,14.57
2023-05-19T17:49:50.240Z,14.56
2023-05-19T17:52:19.235Z,14.59
2023-05-19T17:54:46.182Z,14.57
2023-05-19T17:57:17.610Z,14.56
2023-05-19T17:59:44.796Z,14.51
2023-05-19T18:02:12.161Z,14.51
2023-05-19T18:04:39.231Z,14.52
2023-05-19T18:07:08.356Z,14.56
2023-05-19T18:09:38.496Z,14.52
2023-05-19T18:12:06.347Z,14.55
2023-05-19T18:14:33.167Z,14.55
2023-05-19T18:17:00.555Z,14.55
2023-05-19T18:19:27.292Z,14.54
2023-05-19T18:21:54.038Z,14.52
2023-05-19T18:24:20.776Z,14.52
2023-05-19T18:26:47.496Z,14.50
2023-05-19T18:29:14.746Z,14.50
2023-05-19T18:31:41.879Z,14.48
2023-05-19T18:34:08.835Z,14.48
2023-05-19T18:36:35.776Z,14.48
2023-05-19T18:39:02.596Z,14.45
2023-05-19T18:41:29.353Z,14.43
2023-05-19T18:43:56.090Z,14.44
2023-05-19T18:46:23.125Z,14.41
2023-05-19T18:48:50.789Z,14.41
2023-05-19T18:51:18.762Z,14.39
2023-05-19T18:53:48.670Z,14.38
2023-05-19T18:56:23.573Z,14.37
2023-05-19T18:58:50.520Z,14.35
2023-05-19T19:01:17.208Z,14.34
2023-05-19T19:03:44.965Z,14.34
2023-05-19T19:06:11.768Z,14.32
2023-05-19T19:08:38.605Z,14.31
2023-05-19T19:11:09.399Z,14.29
2023-05-19T19:13:36.311Z,14.28
2023-05-19T19:16:03.612Z,14.28
2023-05-19T19:18:30.433Z,14.25
2023-05-19T19:20:57.801Z,14.25
2023-05-19T19:23:24.697Z,14.20
2023-05-19T19:25:51.422Z,14.18
2023-05-19T19:28:18.134Z,14.19
2023-05-19T19:30:45.660Z,14.17
2023-05-19T19:33:12.465Z,14.16
2023-05-19T19:35:39.149Z,14.13
2023-05-19T19:38:05.836Z,14.12
2023-05-19T19:40:32.885Z,14.07
2023-05-19T19:42:59.788Z,14.06
2023-05-19T19:45:26.509Z,14.04
2023-05-19T19:47:53.653Z,14.04
2023-05-19T19:50:20.469Z,14.02
2023-05-19T19:52:47.145Z,14.01
2023-05-19T19:55:13.878Z,14.01
2023-05-19T19:57:40.664Z,13.99
2023-05-19T20:00:08.497Z,13.97
2023-05-19T20:02:41.038Z,13.95
2023-05-19T20:05:12.840Z,13.94
2023-05-19T20:07:39.582Z,13.93
2023-05-19T20:10:06.775Z,13.92
2023-05-19T20:12:33.477Z,13.90
2023-05-19T20:15:00.158Z,13.90
2023-05-19T20:17:27.022Z,13.86
2023-05-19T20:19:53.713Z,13.84
2023-05-19T20:22:20.409Z,13.83
2023-05-19T20:24:47.136Z,13.83
2023-05-19T20:27:13.773Z,13.82
2023-05-19T20:29:40.738Z,13.79
2023-05-19T20:32:07.393Z,13.79
2023-05-19T20:34:34.090Z,13.79
2023-05-19T20:37:01.504Z,13.76
2023-05-19T20:39:28.168Z,13.76
2023-05-19T20:41:54.839Z,13.75
2023-05-19T20:44:21.749Z,13.75
2023-05-19T20:46:48.407Z,13.73
2023-05-19T20:49:15.174Z,13.72
2023-05-19T20:51:41.989Z,13.70
2023-05-19T20:54:08.720Z,13.69
2023-05-19T20:56:35.476Z,13.67
2023-05-19T20:59:02.171Z,13.67
2023-05-19T21:01:30.174Z,13.64
2023-05-19T21:03:56.866Z,13.62
2023-05-19T21:06:23.596Z,13.63
2023-05-19T21:08:50.636Z,13.60
2023-05-19T21:11:17.298Z,13.61
2023-05-19T21:13:44.224Z,13.59
2023-05-19T21:16:10.888Z,13.59
2023-05-19T21:18:37.599Z,13.58
2023-05-19T21:21:04.921Z,13.56
2023-05-19T21:23:31.601Z,13.54
2023-05-19T21:25:59.701Z,13.53
2023-05-19T21:28:26.585Z,13.52
2023-05-19T21:30:53.355Z,13.52
2023-05-19T21:33:20.139Z,13.50
2023-05-19T21:35:47.057Z,13.50
2023-05-19T21:38:23.262Z,13.49
2023-05-19T21:40:51.340Z,13.45
2023-05-19T21:43:18.067Z,13.48
2023-05-19T21:45:44.767Z,13.46
2023-05-19T21:48:11.608Z,13.45
2023-05-19T21:50:38.790Z,13.43
2023-05-19T21:53:05.760Z,13.42
2023-05-19T21:55:32.502Z,13.42
2023-05-19T21:58:00.995Z,13.41
2023-05-19T22:00:29.184Z,13.39
2023-05-19T22:02:56.008Z,13.38
2023-05-19T22:05:23.068Z,13.38
2023-05-19T22:07:49.764Z,13.38
2023-05-19T22:10:16.589Z,13.37
2023-05-19T22:12:43.523Z,13.35
2023-05-19T22:15:11.104Z,13.35
2023-05-19T22:17:37.916Z,13.34
2023-05-19T22:20:05.508Z,13.33
2023-05-19T22:22:32.396Z,13.31
2023-05-19T22:24:59.095Z,13.28
2023-05-19T22:27:25.923Z,13.29
2023-05-19T22:29:52.803Z,13.27
2023-05-19T22:32:19.638Z,13.25
2023-05-19T22:34:46.546Z,13.25
2023-05-19T22:37:13.378Z,13.24
2023-05-19T22:39:40.049Z,13.25
2023-05-19T22:42:06.771Z,13.25
2023-05-19T22:44:33.543Z,13.20
2023-05-19T22:47:00.221Z,13.22
2023-05-19T22:49:27.495Z,13.21
2023-05-19T22:51:54.242Z,13.19
2023-05-19T22:54:21.087Z,13.20
2023-05-19T22:56:49.047Z,13.17
2023-05-19T22:59:18.044Z,13.17
2023-05-19T23:01:46.782Z,13.17
2023-05-19T23:04:14.069Z,13.16
2023-05-19T23:06:40.931Z,13.16
2023-05-19T23:09:08.096Z,13.17
2023-05-19T23:11:36.056Z,13.15
2023-05-19T23:14:02.778Z,13.15
2023-05-19T23:16:29.631Z,13.14
2023-05-19T23:18:56.427Z,13.15
2023-05-19T23:21:23.186Z,13.13
2023-05-19T23:23:50.203Z,13.12
2023-05-19T23:26:16.877Z,13.08
2023-05-19T23:28:43.987Z,13.09
2023-05-19T23:31:10.902Z,13.09
2023-05-19T23:33:37.694Z,12.94
2023-05-19T23:36:09.603Z,13.01
2023-05-19T23:38:37.650Z,13.03
2023-05-19T23:41:05.251Z,13.01
2023-05-19T23:43:34.986Z,13.02
2023-05-19T23:46:01.787Z,13.02
2023-05-19T23:48:29.476Z,13.01
2023-05-19T23:50:57.813Z,13.00
2023-05-19T23:53:25.081Z,13.00
2023-05-19T23:55:51.890Z,13.01
2023-05-19T23:58:18.983Z,12.99
